Moscow, North Dakota
Current Conditions -  °F | °C
As of 6:35 AM on Monday 26 Jan 2015 (Local Time) from KD55 Reporting Station
Clear Clear  
Wind Chill: 22°   Ceiling: Unl
Heat Index: 34°   Visibility: 10mi
Dew Point: 28°   Wind: 22mph
Humidity: 81%   Direction: 300°WNW
Pressure: 29.67"   Gusts: 28mph
Location:  48.6307°N, 98.5917°W
Report Text: KD55 261235Z AUTO 30019G24KT 10SM CLR 01/M02 A2967 RMK AO2
Loading
Personal Weather Stations






























Interactive Weather Map New forecast layout! Learn more

10-Day Weather Forecast

Advertisements
Track Severe Weather on mobile